TimePST,TemperatureF,Dew PointF,Humidity,Sea Level PressureIn,VisibilityMPH,Wind Direction,Wind SpeedMPH,Gust SpeedMPH,PrecipitationIn,Events,Conditions,WindDirDegrees,DateUTC
12:36 AM,43.0,37.0,80,29.91,10.0,WSW,6.9,-,N/A,,Mostly Cloudy,250,2012-11-08 08:36:00
12:53 AM,42.1,37.0,82,29.92,10.0,SW,4.6,-,N/A,,Mostly Cloudy,230,2012-11-08 08:53:00
1:02 AM,42.1,37.0,82,29.91,10.0,SW,3.5,-,N/A,,Mostly Cloudy,220,2012-11-08 09:02:00
1:41 AM,42.1,36.0,79,29.90,10.0,West,6.9,-,N/A,,Scattered Clouds,260,2012-11-08 09:41:00
1:53 AM,41.0,36.0,82,29.91,10.0,WSW,5.8,-,N/A,,Partly Cloudy,250,2012-11-08 09:53:00
2:22 AM,41.0,36.0,82,29.90,10.0,SW,5.8,-,N/A,,Mostly Cloudy,230,2012-11-08 10:22:00
2:53 AM,37.9,35.1,89,29.91,10.0,SW,5.8,-,N/A,,Mostly Cloudy,220,2012-11-08 10:53:00
3:07 AM,37.9,35.1,89,29.90,10.0,Calm,Calm,-,N/A,,Scattered Clouds,0,2012-11-08 11:07:00
3:53 AM,37.0,35.1,93,29.90,10.0,SW,3.5,-,N/A,,Mostly Cloudy,220,2012-11-08 11:53:00
4:53 AM,39.0,36.0,89,29.90,10.0,WSW,4.6,-,N/A,,Overcast,240,2012-11-08 12:53:00
5:04 AM,39.9,36.0,86,29.89,10.0,SW,5.8,-,N/A,,Overcast,230,2012-11-08 13:04:00
5:45 AM,39.9,36.0,86,29.89,10.0,SSW,4.6,-,N/A,,Overcast,210,2012-11-08 13:45:00
5:53 AM,39.9,37.0,89,29.90,10.0,SSW,3.5,-,N/A,,Overcast,210,2012-11-08 13:53:00
6:36 AM,41.0,37.9,89,29.89,10.0,Calm,Calm,-,N/A,,Overcast,0,2012-11-08 14:36:00
6:53 AM,41.0,37.0,86,29.89,10.0,SW,4.6,-,N/A,,Overcast,230,2012-11-08 14:53:00
7:19 AM,41.0,37.0,86,29.89,10.0,WSW,4.6,-,N/A,,Overcast,240,2012-11-08 15:19:00
7:45 AM,41.0,37.0,86,29.90,10.0,SW,4.6,-,N/A,,Overcast,220,2012-11-08 15:45:00
7:53 AM,41.0,37.0,86,29.91,10.0,SW,3.5,-,N/A,,Overcast,230,2012-11-08 15:53:00
8:53 AM,46.0,37.0,71,29.91,10.0,East,8.1,-,N/A,,Overcast,80,2012-11-08 16:53:00
9:53 AM,46.0,37.9,73,29.91,10.0,Variable,5.8,-,N/A,,Overcast,0,2012-11-08 17:53:00
10:28 AM,46.0,37.9,73,29.90,10.0,ESE,5.8,-,N/A,,Scattered Clouds,110,2012-11-08 18:28:00
10:53 AM,46.9,37.9,71,29.91,10.0,Variable,5.8,-,N/A,,Mostly Cloudy,0,2012-11-08 18:53:00
11:00 AM,46.0,37.9,73,29.90,10.0,East,4.6,-,N/A,,Overcast,80,2012-11-08 19:00:00
11:09 AM,46.0,37.9,73,29.90,10.0,East,6.9,-,N/A,,Overcast,100,2012-11-08 19:09:00
11:53 AM,48.0,39.0,71,29.90,10.0,SE,6.9,-,N/A,,Scattered Clouds,140,2012-11-08 19:53:00
12:53 PM,48.9,36.0,61,29.89,10.0,North,-9999.0,-,N/A,,Clear,0,2012-11-08 20:53:00
1:53 PM,48.9,34.0,56,29.88,10.0,SSE,5.8,-,N/A,,Clear,150,2012-11-08 21:53:00
2:53 PM,48.9,33.1,54,29.88,10.0,South,5.8,-,N/A,,Clear,180,2012-11-08 22:53:00
3:53 PM,46.9,32.0,56,29.87,10.0,SSW,4.6,-,N/A,,Clear,200,2012-11-08 23:53:00
4:53 PM,43.0,34.0,71,29.87,10.0,SW,6.9,-,N/A,,Clear,230,2012-11-09 00:53:00
5:53 PM,41.0,33.1,73,29.86,10.0,SW,9.2,-,N/A,,Clear,230,2012-11-09 01:53:00
6:53 PM,39.9,33.1,77,29.87,10.0,WSW,9.2,-,N/A,,Clear,240,2012-11-09 02:53:00
7:53 PM,39.0,32.0,76,29.87,10.0,SW,9.2,-,N/A,,Clear,230,2012-11-09 03:53:00
8:53 PM,37.9,32.0,79,29.87,10.0,WSW,9.2,-,N/A,,Clear,240,2012-11-09 04:53:00
9:53 PM,35.1,30.9,85,29.87,10.0,SW,4.6,-,N/A,,Clear,230,2012-11-09 05:53:00
10:53 PM,37.0,32.0,82,29.88,10.0,SW,9.2,-,N/A,,Clear,230,2012-11-09 06:53:00
11:53 PM,35.1,30.9,85,29.89,10.0,SW,8.1,-,N/A,,Clear,230,2012-11-09 07:53:00